Americaborg — PHKT — position and weather

sailwx.info

Track history (hours):
 
Tides and Currents Weather Stations Pressure Air Temp Water Temp Dewpoint Dewpoint Depression Visibility Wind Speed Wind Dir Waves Ship Positions

Americaborg

Last reported at 2017-Dec-04 10:31 UTC. Time now 2017-Dec-12 08:35 UTC.
Position N 60°21' E 019°01'.

Length 143 m; draft 8.2 m.

Type: Ship. MMSI: 244693000.

Date/timePositionNaut miles runAvg speedWind from/ knotsBaromVisibWave heightAir tempDewpointWater temp
2017-Dec-04 10:31N 60°21' E 019°01'611.5
2017-Dec-04 10:00N 60°15' E 019°03'612.0
2017-Dec-04 09:30N 60°10' E 019°08'612.0
2017-Dec-04 09:00N 60°05' E 019°16'612.2
2017-Dec-04 08:30N 60°01' E 019°24'612.4
2017-Dec-04 08:00N 59°56' E 019°31'612.5
2017-Dec-04 07:30N 59°51' E 019°39'25312.1
2017-Dec-03 10:30N 55°58' E 016°32'713.6
2017-Dec-03 10:00N 55°55' E 016°21'713.7
2017-Dec-03 09:30N 55°52' E 016°11'713.7
2017-Dec-03 09:00N 55°48' E 016°00'713.7
2017-Dec-03 08:30N 55°45' E 015°49'713.6
2017-Dec-03 08:00N 55°42' E 015°39'713.6
2017-Dec-03 07:30N 55°38' E 015°28'713.6
2017-Dec-03 07:00N 55°35' E 015°18'713.7
2017-Dec-03 06:28N 55°32' E 015°06'613.7
2017-Dec-03 06:00N 55°29' E 014°56'713.7
2017-Dec-03 05:30N 55°25' E 014°46'713.4
2017-Dec-03 05:00N 55°21' E 014°36'713.6
2017-Dec-03 04:30N 55°16' E 014°29'713.6
2017-Dec-03 04:00N 55°11' E 014°21'713.7
2017-Dec-03 03:30N 55°05' E 014°14'6313.3
2017-Dec-02 22:46N 54°40' E 012°33'313.4
2017-Dec-02 22:30N 54°38' E 012°28'713.3
2017-Dec-02 22:00N 54°35' E 012°19'713.2
2017-Dec-02 21:30N 54°28' E 012°15'612.4
2017-Dec-02 21:00N 54°24' E 012°07'1713.0
2017-Dec-02 19:44N 54°27' E 011°39'312.5
2017-Dec-02 19:29N 54°28' E 011°34'612.6
2017-Dec-02 19:00N 54°31' E 011°25'612.4
2017-Dec-02 18:30N 54°34' E 011°15'612.3
2017-Dec-02 18:01N 54°37' E 011°06'612.7
2017-Dec-02 17:30N 54°40' E 010°57'510.9
2017-Dec-02 17:00N 54°45' E 010°52'611.4
2017-Dec-02 16:30N 54°51' E 010°52'611.1
2017-Dec-02 16:00N 54°56' E 010°55'611.1
2017-Dec-02 15:30N 55°00' E 011°01'611.8
2017-Dec-02 15:00N 55°06' E 011°02'611.2
2017-Dec-02 14:30N 55°11' E 011°04'9910.9
2017-Dec-02 05:22N 56°47' E 011°51'1113.1
2017-Dec-02 04:34N 56°57' E 011°45'212.8
2017-Dec-02 04:25N 56°59' E 011°43'612.4
2017-Dec-02 03:56N 57°04' E 011°40'512.4
2017-Dec-02 03:30N 57°09' E 011°36'612.6
2017-Dec-02 03:01N 57°15' E 011°31'612.7
2017-Dec-02 02:31N 57°21' E 011°29'612.0
2017-Dec-02 02:00N 57°27' E 011°29'713.3
2017-Dec-02 01:30N 57°33' E 011°35'4 7.4
2017-Dec-02 00:59N 57°36' E 011°41'0 0.1
2017-Dec-02 00:29N 57°36' E 011°40'0 0.1
2017-Dec-01 23:59N 57°36' E 011°40'0 0.0
2017-Dec-01 23:23N 57°36' E 011°40'0 0.0
2017-Dec-01 22:59N 57°36' E 011°40'0 0.0
2017-Dec-01 22:29N 57°36' E 011°40'0 0.0
2017-Dec-01 21:59N 57°36' E 011°40'0 0.0
2017-Dec-01 21:29N 57°36' E 011°40'0 0.0
2017-Dec-01 20:58N 57°36' E 011°40'0 0.1
2017-Dec-01 20:30N 57°36' E 011°40'0 0.3
2017-Dec-01 20:00N 57°35' E 011°40'1 1.9
2017-Dec-01 19:30N 57°35' E 011°39'3 5.9
2017-Dec-01 19:00N 57°33' E 011°35'611.1
2017-Dec-01 18:30N 57°34' E 011°24'713.3
2017-Dec-01 18:00N 57°35' E 011°12'713.2
2017-Dec-01 17:30N 57°39' E 011°02'713.3
2017-Dec-01 17:00N 57°43' E 010°53'612.7
2017-Dec-01 16:30N 57°47' E 010°44'612.8
2017-Dec-01 16:00N 57°47' E 010°32'10013.0
2017-Dec-01 08:18N 57°41' E 007°24'412.9
2017-Dec-01 08:00N 57°41' E 007°17'1112.6
2017-Dec-01 07:10N 57°42' E 006°57'212.2
2017-Dec-01 06:59N 57°42' E 006°53'612.6
2017-Dec-01 06:29N 57°42' E 006°41'612.7
2017-Dec-01 06:00N 57°43' E 006°30'612.6
2017-Dec-01 05:30N 57°44' E 006°19'612.6
2017-Dec-01 05:00N 57°45' E 006°07'  
Track history (hours):
 
Tides and Currents Weather Stations Pressure Air Temp Water Temp Dewpoint Dewpoint Depression Visibility Wind Speed Wind Dir Waves Ship Positions

Americaborg

Last reported at 2017-Dec-04 10:31 UTC. Time now 2017-Dec-12 08:35 UTC.
Position N 60°21' E 019°01'.

Length 143 m; draft 8.2 m.

Type: Ship. MMSI: 244693000.

Date/timePositionNaut miles runAvg speedWind from/ knotsBaromVisibWave heightAir tempDewpointWater temp
2017-Dec-04 10:31N 60°21' E 019°01'611.5
2017-Dec-04 10:00N 60°15' E 019°03'612.0
2017-Dec-04 09:30N 60°10' E 019°08'612.0
2017-Dec-04 09:00N 60°05' E 019°16'612.2
2017-Dec-04 08:30N 60°01' E 019°24'612.4
2017-Dec-04 08:00N 59°56' E 019°31'612.5
2017-Dec-04 07:30N 59°51' E 019°39'25312.1
2017-Dec-03 10:30N 55°58' E 016°32'713.6
2017-Dec-03 10:00N 55°55' E 016°21'713.7
2017-Dec-03 09:30N 55°52' E 016°11'713.7
2017-Dec-03 09:00N 55°48' E 016°00'713.7
2017-Dec-03 08:30N 55°45' E 015°49'713.6
2017-Dec-03 08:00N 55°42' E 015°39'713.6
2017-Dec-03 07:30N 55°38' E 015°28'713.6
2017-Dec-03 07:00N 55°35' E 015°18'713.7
2017-Dec-03 06:28N 55°32' E 015°06'613.7
2017-Dec-03 06:00N 55°29' E 014°56'713.7
2017-Dec-03 05:30N 55°25' E 014°46'713.4
2017-Dec-03 05:00N 55°21' E 014°36'713.6
2017-Dec-03 04:30N 55°16' E 014°29'713.6
2017-Dec-03 04:00N 55°11' E 014°21'713.7
2017-Dec-03 03:30N 55°05' E 014°14'6313.3
2017-Dec-02 22:46N 54°40' E 012°33'313.4
2017-Dec-02 22:30N 54°38' E 012°28'713.3
2017-Dec-02 22:00N 54°35' E 012°19'713.2
2017-Dec-02 21:30N 54°28' E 012°15'612.4
2017-Dec-02 21:00N 54°24' E 012°07'1713.0
2017-Dec-02 19:44N 54°27' E 011°39'312.5
2017-Dec-02 19:29N 54°28' E 011°34'612.6
2017-Dec-02 19:00N 54°31' E 011°25'612.4
2017-Dec-02 18:30N 54°34' E 011°15'612.3
2017-Dec-02 18:01N 54°37' E 011°06'612.7
2017-Dec-02 17:30N 54°40' E 010°57'510.9
2017-Dec-02 17:00N 54°45' E 010°52'611.4
2017-Dec-02 16:30N 54°51' E 010°52'611.1
2017-Dec-02 16:00N 54°56' E 010°55'611.1
2017-Dec-02 15:30N 55°00' E 011°01'611.8
2017-Dec-02 15:00N 55°06' E 011°02'611.2
2017-Dec-02 14:30N 55°11' E 011°04'9910.9
2017-Dec-02 05:22N 56°47' E 011°51'1113.1
2017-Dec-02 04:34N 56°57' E 011°45'212.8
2017-Dec-02 04:25N 56°59' E 011°43'612.4
2017-Dec-02 03:56N 57°04' E 011°40'512.4
2017-Dec-02 03:30N 57°09' E 011°36'612.6
2017-Dec-02 03:01N 57°15' E 011°31'612.7
2017-Dec-02 02:31N 57°21' E 011°29'612.0
2017-Dec-02 02:00N 57°27' E 011°29'713.3
2017-Dec-02 01:30N 57°33' E 011°35'4 7.4
2017-Dec-02 00:59N 57°36' E 011°41'0 0.1
2017-Dec-02 00:29N 57°36' E 011°40'0 0.1
2017-Dec-01 23:59N 57°36' E 011°40'0 0.0
2017-Dec-01 23:23N 57°36' E 011°40'0 0.0
2017-Dec-01 22:59N 57°36' E 011°40'0 0.0
2017-Dec-01 22:29N 57°36' E 011°40'0 0.0
2017-Dec-01 21:59N 57°36' E 011°40'0 0.0
2017-Dec-01 21:29N 57°36' E 011°40'0 0.0
2017-Dec-01 20:58N 57°36' E 011°40'0 0.1
2017-Dec-01 20:30N 57°36' E 011°40'0 0.3
2017-Dec-01 20:00N 57°35' E 011°40'1 1.9
2017-Dec-01 19:30N 57°35' E 011°39'3 5.9
2017-Dec-01 19:00N 57°33' E 011°35'611.1
2017-Dec-01 18:30N 57°34' E 011°24'713.3
2017-Dec-01 18:00N 57°35' E 011°12'713.2
2017-Dec-01 17:30N 57°39' E 011°02'713.3
2017-Dec-01 17:00N 57°43' E 010°53'612.7
2017-Dec-01 16:30N 57°47' E 010°44'612.8
2017-Dec-01 16:00N 57°47' E 010°32'10013.0
2017-Dec-01 08:18N 57°41' E 007°24'412.9
2017-Dec-01 08:00N 57°41' E 007°17'1112.6
2017-Dec-01 07:10N 57°42' E 006°57'212.2
2017-Dec-01 06:59N 57°42' E 006°53'612.6
2017-Dec-01 06:29N 57°42' E 006°41'612.7
2017-Dec-01 06:00N 57°43' E 006°30'612.6
2017-Dec-01 05:30N 57°44' E 006°19'612.6
2017-Dec-01 05:00N 57°45' E 006°07'  

Dump ship's entire track history